sensor_id;sensor_type;location;lat;lon;timestamp;P1;durP1;ratioP1;P2;durP2;ratioP2
38859;SDS011;24609;48.316;16.174;2023-04-12T00:01:58;5.25;;;2.47;;
38859;SDS011;24609;48.316;16.174;2023-04-12T00:04:25;5.45;;;3.10;;
38859;SDS011;24609;48.316;16.174;2023-04-12T00:06:55;3.42;;;2.45;;
38859;SDS011;24609;48.316;16.174;2023-04-12T00:09:35;4.70;;;2.63;;
38859;SDS011;24609;48.316;16.174;2023-04-12T00:12:03;2.83;;;1.95;;
38859;SDS011;24609;48.316;16.174;2023-04-12T00:14:33;4.97;;;2.45;;
38859;SDS011;24609;48.316;16.174;2023-04-12T00:17:01;5.07;;;2.03;;
38859;SDS011;24609;48.316;16.174;2023-04-12T00:19:30;2.70;;;1.88;;
38859;SDS011;24609;48.316;16.174;2023-04-12T00:21:56;2.85;;;2.00;;
38859;SDS011;24609;48.316;16.174;2023-04-12T00:24:25;3.05;;;2.08;;
38859;SDS011;24609;48.316;16.174;2023-04-12T00:26:53;4.32;;;1.98;;
38859;SDS011;24609;48.316;16.174;2023-04-12T00:29:25;2.85;;;1.42;;
38859;SDS011;24609;48.316;16.174;2023-04-12T00:32:07;2.08;;;1.77;;
38859;SDS011;24609;48.316;16.174;2023-04-12T00:34:35;4.15;;;2.30;;
38859;SDS011;24609;48.316;16.174;2023-04-12T00:37:01;4.25;;;1.98;;
38859;SDS011;24609;48.316;16.174;2023-04-12T00:39:27;3.10;;;1.85;;
38859;SDS011;24609;48.316;16.174;2023-04-12T00:41:58;2.40;;;1.63;;
38859;SDS011;24609;48.316;16.174;2023-04-12T00:44:35;1.90;;;1.70;;
38859;SDS011;24609;48.316;16.174;2023-04-12T00:47:06;2.13;;;1.85;;
38859;SDS011;24609;48.316;16.174;2023-04-12T00:49:38;2.33;;;2.00;;
38859;SDS011;24609;48.316;16.174;2023-04-12T00:52:18;1.55;;;1.45;;
38859;SDS011;24609;48.316;16.174;2023-04-12T00:55:00;3.92;;;1.55;;
38859;SDS011;24609;48.316;16.174;2023-04-12T00:57:33;3.00;;;1.92;;
38859;SDS011;24609;48.316;16.174;2023-04-12T01:00:01;3.30;;;1.63;;
38859;SDS011;24609;48.316;16.174;2023-04-12T01:02:34;4.88;;;2.13;;
38859;SDS011;24609;48.316;16.174;2023-04-12T01:05:03;2.47;;;1.00;;
38859;SDS011;24609;48.316;16.174;2023-04-12T01:15:46;3.63;;;1.60;;
38859;SDS011;24609;48.316;16.174;2023-04-12T01:18:22;2.83;;;1.73;;
38859;SDS011;24609;48.316;16.174;2023-04-12T01:21:00;3.75;;;1.65;;
38859;SDS011;24609;48.316;16.174;2023-04-12T01:26:41;3.70;;;1.67;;
38859;SDS011;24609;48.316;16.174;2023-04-12T01:29:17;4.53;;;1.67;;
38859;SDS011;24609;48.316;16.174;2023-04-12T01:34:41;2.15;;;1.95;;
38859;SDS011;24609;48.316;16.174;2023-04-12T01:37:10;3.17;;;2.03;;
38859;SDS011;24609;48.316;16.174;2023-04-12T01:39:42;3.60;;;1.83;;
38859;SDS011;24609;48.316;16.174;2023-04-12T01:42:08;3.15;;;1.80;;
38859;SDS011;24609;48.316;16.174;2023-04-12T01:44:34;3.75;;;2.00;;
38859;SDS011;24609;48.316;16.174;2023-04-12T01:46:59;3.83;;;2.30;;
38859;SDS011;24609;48.316;16.174;2023-04-12T01:49:36;13.10;;;2.40;;
38859;SDS011;24609;48.316;16.174;2023-04-12T01:52:13;3.78;;;2.13;;
38859;SDS011;24609;48.316;16.174;2023-04-12T01:54:47;9.68;;;2.63;;
38859;SDS011;24609;48.316;16.174;2023-04-12T01:57:24;3.30;;;1.80;;
38859;SDS011;24609;48.316;16.174;2023-04-12T01:59:53;2.90;;;1.90;;
38859;SDS011;24609;48.316;16.174;2023-04-12T02:02:20;4.05;;;1.88;;
38859;SDS011;24609;48.316;16.174;2023-04-12T02:04:46;6.10;;;1.77;;
38859;SDS011;24609;48.316;16.174;2023-04-12T02:07:12;3.50;;;1.70;;
38859;SDS011;24609;48.316;16.174;2023-04-12T02:09:45;4.30;;;1.65;;
38859;SDS011;24609;48.316;16.174;2023-04-12T02:12:13;3.45;;;2.22;;
38859;SDS011;24609;48.316;16.174;2023-04-12T02:14:39;3.22;;;2.00;;
38859;SDS011;24609;48.316;16.174;2023-04-12T02:17:05;4.35;;;2.20;;
38859;SDS011;24609;48.316;16.174;2023-04-12T02:19:33;3.13;;;1.42;;
38859;SDS011;24609;48.316;16.174;2023-04-12T02:21:59;2.38;;;1.83;;
38859;SDS011;24609;48.316;16.174;2023-04-12T02:24:26;2.75;;;1.58;;
38859;SDS011;24609;48.316;16.174;2023-04-12T02:26:54;3.03;;;1.75;;
38859;SDS011;24609;48.316;16.174;2023-04-12T02:29:25;2.65;;;1.85;;
38859;SDS011;24609;48.316;16.174;2023-04-12T02:32:02;7.70;;;2.10;;
38859;SDS011;24609;48.316;16.174;2023-04-12T02:34:36;2.72;;;2.03;;
38859;SDS011;24609;48.316;16.174;2023-04-12T02:37:06;2.78;;;1.67;;
38859;SDS011;24609;48.316;16.174;2023-04-12T02:39:32;1.10;;;1.00;;
38859;SDS011;24609;48.316;16.174;2023-04-12T02:41:59;1.88;;;1.58;;
38859;SDS011;24609;48.316;16.174;2023-04-12T02:44:27;6.60;;;1.70;;
38859;SDS011;24609;48.316;16.174;2023-04-12T02:49:20;6.00;;;1.63;;
38859;SDS011;24609;48.316;16.174;2023-04-12T02:51:46;3.10;;;1.77;;
38859;SDS011;24609;48.316;16.174;2023-04-12T02:54:12;1.90;;;1.52;;
38859;SDS011;24609;48.316;16.174;2023-04-12T02:56:38;2.70;;;1.67;;
38859;SDS011;24609;48.316;16.174;2023-04-12T02:59:04;5.53;;;1.70;;
38859;SDS011;24609;48.316;16.174;2023-04-12T03:01:30;2.70;;;1.70;;
38859;SDS011;24609;48.316;16.174;2023-04-12T03:03:58;3.20;;;2.00;;
38859;SDS011;24609;48.316;16.174;2023-04-12T03:06:25;2.83;;;1.35;;
38859;SDS011;24609;48.316;16.174;2023-04-12T03:08:50;12.38;;;1.75;;
38859;SDS011;24609;48.316;16.174;2023-04-12T03:11:16;2.55;;;1.42;;
38859;SDS011;24609;48.316;16.174;2023-04-12T03:13:42;3.42;;;1.38;;
38859;SDS011;24609;48.316;16.174;2023-04-12T03:16:21;2.55;;;1.33;;
38859;SDS011;24609;48.316;16.174;2023-04-12T03:18:48;2.08;;;1.40;;
38859;SDS011;24609;48.316;16.174;2023-04-12T03:21:15;3.42;;;2.10;;
38859;SDS011;24609;48.316;16.174;2023-04-12T03:23:41;5.93;;;1.67;;
38859;SDS011;24609;48.316;16.174;2023-04-12T03:26:07;2.47;;;1.60;;
38859;SDS011;24609;48.316;16.174;2023-04-12T03:28:33;2.42;;;1.50;;
38859;SDS011;24609;48.316;16.174;2023-04-12T03:30:58;2.20;;;1.10;;
38859;SDS011;24609;48.316;16.174;2023-04-12T03:33:24;2.80;;;1.50;;
38859;SDS011;24609;48.316;16.174;2023-04-12T03:35:51;5.45;;;1.73;;
38859;SDS011;24609;48.316;16.174;2023-04-12T03:38:16;2.72;;;1.77;;
38859;SDS011;24609;48.316;16.174;2023-04-12T03:40:42;3.83;;;1.52;;
38859;SDS011;24609;48.316;16.174;2023-04-12T03:43:08;3.80;;;1.90;;
38859;SDS011;24609;48.316;16.174;2023-04-12T03:45:34;3.13;;;1.73;;
38859;SDS011;24609;48.316;16.174;2023-04-12T03:48:00;1.33;;;1.15;;
38859;SDS011;24609;48.316;16.174;2023-04-12T03:50:26;4.10;;;2.13;;
38859;SDS011;24609;48.316;16.174;2023-04-12T03:52:53;2.40;;;1.95;;
38859;SDS011;24609;48.316;16.174;2023-04-12T03:55:19;4.97;;;2.13;;
38859;SDS011;24609;48.316;16.174;2023-04-12T03:57:45;5.18;;;1.85;;
38859;SDS011;24609;48.316;16.174;2023-04-12T04:00:11;1.05;;;0.93;;
38859;SDS011;24609;48.316;16.174;2023-04-12T04:02:37;2.42;;;1.42;;
38859;SDS011;24609;48.316;16.174;2023-04-12T04:05:03;1.75;;;1.42;;
38859;SDS011;24609;48.316;16.174;2023-04-12T04:07:29;1.48;;;1.13;;
38859;SDS011;24609;48.316;16.174;2023-04-12T04:09:58;2.78;;;1.13;;
38859;SDS011;24609;48.316;16.174;2023-04-12T04:12:24;2.47;;;1.48;;
38859;SDS011;24609;48.316;16.174;2023-04-12T04:14:50;2.17;;;1.25;;
38859;SDS011;24609;48.316;16.174;2023-04-12T04:17:15;3.05;;;1.45;;
38859;SDS011;24609;48.316;16.174;2023-04-12T04:19:41;5.28;;;1.70;;
38859;SDS011;24609;48.316;16.174;2023-04-12T04:22:07;1.63;;;1.48;;
38859;SDS011;24609;48.316;16.174;2023-04-12T04:24:34;6.03;;;1.98;;
38859;SDS011;24609;48.316;16.174;2023-04-12T04:27:02;2.38;;;1.10;;
38859;SDS011;24609;48.316;16.174;2023-04-12T04:29:28;6.40;;;2.95;;
38859;SDS011;24609;48.316;16.174;2023-04-12T04:31:55;11.75;;;2.03;;
38859;SDS011;24609;48.316;16.174;2023-04-12T04:34:23;2.25;;;1.50;;
38859;SDS011;24609;48.316;16.174;2023-04-12T04:36:49;1.55;;;1.45;;
38859;SDS011;24609;48.316;16.174;2023-04-12T04:39:15;2.45;;;1.38;;
38859;SDS011;24609;48.316;16.174;2023-04-12T04:41:41;3.55;;;1.95;;
38859;SDS011;24609;48.316;16.174;2023-04-12T04:44:07;5.45;;;2.92;;
38859;SDS011;24609;48.316;16.174;2023-04-12T04:46:37;2.25;;;2.05;;
38859;SDS011;24609;48.316;16.174;2023-04-12T04:49:03;5.15;;;3.70;;
38859;SDS011;24609;48.316;16.174;2023-04-12T04:51:29;6.20;;;2.92;;
38859;SDS011;24609;48.316;16.174;2023-04-12T04:53:56;4.78;;;3.42;;
38859;SDS011;24609;48.316;16.174;2023-04-12T04:56:22;7.28;;;2.75;;
38859;SDS011;24609;48.316;16.174;2023-04-12T04:58:49;3.67;;;2.67;;
38859;SDS011;24609;48.316;16.174;2023-04-12T05:01:15;2.55;;;1.63;;
38859;SDS011;24609;48.316;16.174;2023-04-12T05:03:41;4.38;;;2.97;;
38859;SDS011;24609;48.316;16.174;2023-04-12T05:06:09;2.72;;;2.10;;
38859;SDS011;24609;48.316;16.174;2023-04-12T05:08:35;4.97;;;2.67;;
38859;SDS011;24609;48.316;16.174;2023-04-12T05:11:01;4.25;;;1.85;;
38859;SDS011;24609;48.316;16.174;2023-04-12T05:13:30;3.65;;;2.80;;
38859;SDS011;24609;48.316;16.174;2023-04-12T05:15:56;4.05;;;1.88;;
38859;SDS011;24609;48.316;16.174;2023-04-12T05:18:22;2.88;;;1.88;;
38859;SDS011;24609;48.316;16.174;2023-04-12T05:20:47;3.33;;;1.95;;
38859;SDS011;24609;48.316;16.174;2023-04-12T05:23:13;3.17;;;1.98;;
38859;SDS011;24609;48.316;16.174;2023-04-12T05:25:43;3.25;;;1.85;;
38859;SDS011;24609;48.316;16.174;2023-04-12T05:28:11;1.75;;;1.15;;
38859;SDS011;24609;48.316;16.174;2023-04-12T05:30:38;2.15;;;1.90;;
38859;SDS011;24609;48.316;16.174;2023-04-12T05:33:04;1.90;;;1.25;;
38859;SDS011;24609;48.316;16.174;2023-04-12T05:35:30;3.10;;;2.30;;
38859;SDS011;24609;48.316;16.174;2023-04-12T05:37:56;4.63;;;2.60;;
38859;SDS011;24609;48.316;16.174;2023-04-12T05:40:22;6.78;;;2.75;;
38859;SDS011;24609;48.316;16.174;2023-04-12T05:42:49;2.53;;;1.92;;
38859;SDS011;24609;48.316;16.174;2023-04-12T05:45:15;6.18;;;1.90;;
38859;SDS011;24609;48.316;16.174;2023-04-12T05:47:41;3.42;;;2.38;;
38859;SDS011;24609;48.316;16.174;2023-04-12T05:50:07;4.75;;;2.15;;
38859;SDS011;24609;48.316;16.174;2023-04-12T05:52:35;4.53;;;2.53;;
38859;SDS011;24609;48.316;16.174;2023-04-12T05:55:01;5.65;;;2.55;;
38859;SDS011;24609;48.316;16.174;2023-04-12T05:57:27;4.53;;;2.42;;
38859;SDS011;24609;48.316;16.174;2023-04-12T05:59:55;5.28;;;3.05;;
38859;SDS011;24609;48.316;16.174;2023-04-12T06:02:21;7.70;;;3.10;;
38859;SDS011;24609;48.316;16.174;2023-04-12T06:04:49;5.05;;;3.38;;
38859;SDS011;24609;48.316;16.174;2023-04-12T06:07:16;4.60;;;2.90;;
38859;SDS011;24609;48.316;16.174;2023-04-12T06:09:45;7.68;;;2.28;;
38859;SDS011;24609;48.316;16.174;2023-04-12T06:12:11;3.20;;;1.88;;
38859;SDS011;24609;48.316;16.174;2023-04-12T06:14:37;10.90;;;3.08;;
38859;SDS011;24609;48.316;16.174;2023-04-12T06:17:02;3.30;;;2.17;;
38859;SDS011;24609;48.316;16.174;2023-04-12T06:19:30;3.55;;;2.13;;
38859;SDS011;24609;48.316;16.174;2023-04-12T06:21:56;5.18;;;2.40;;
38859;SDS011;24609;48.316;16.174;2023-04-12T06:24:24;4.07;;;2.37;;
38859;SDS011;24609;48.316;16.174;2023-04-12T06:26:51;3.58;;;1.45;;
38859;SDS011;24609;48.316;16.174;2023-04-12T06:29:16;5.93;;;2.22;;
38859;SDS011;24609;48.316;16.174;2023-04-12T06:31:47;4.40;;;1.75;;
38859;SDS011;24609;48.316;16.174;2023-04-12T06:34:13;4.38;;;1.52;;
38859;SDS011;24609;48.316;16.174;2023-04-12T06:36:39;4.18;;;1.80;;
38859;SDS011;24609;48.316;16.174;2023-04-12T06:39:13;2.70;;;1.75;;
38859;SDS011;24609;48.316;16.174;2023-04-12T06:41:42;3.35;;;1.67;;
38859;SDS011;24609;48.316;16.174;2023-04-12T06:44:14;2.88;;;2.00;;
38859;SDS011;24609;48.316;16.174;2023-04-12T06:46:40;2.58;;;1.75;;
38859;SDS011;24609;48.316;16.174;2023-04-12T06:49:09;5.07;;;1.70;;
38859;SDS011;24609;48.316;16.174;2023-04-12T06:51:37;5.10;;;1.90;;
38859;SDS011;24609;48.316;16.174;2023-04-12T06:54:03;4.85;;;2.05;;
38859;SDS011;24609;48.316;16.174;2023-04-12T06:56:29;2.42;;;1.48;;
38859;SDS011;24609;48.316;16.174;2023-04-12T06:58:55;3.63;;;2.08;;
38859;SDS011;24609;48.316;16.174;2023-04-12T07:01:20;3.58;;;1.48;;
38859;SDS011;24609;48.316;16.174;2023-04-12T07:03:46;2.53;;;1.48;;
38859;SDS011;24609;48.316;16.174;2023-04-12T07:06:12;3.92;;;1.83;;
38859;SDS011;24609;48.316;16.174;2023-04-12T07:08:38;5.88;;;2.17;;
38859;SDS011;24609;48.316;16.174;2023-04-12T07:11:04;1.75;;;1.60;;
38859;SDS011;24609;48.316;16.174;2023-04-12T07:13:30;1.98;;;1.40;;
38859;SDS011;24609;48.316;16.174;2023-04-12T07:15:56;1.90;;;1.40;;
38859;SDS011;24609;48.316;16.174;2023-04-12T07:18:25;3.08;;;1.73;;
38859;SDS011;24609;48.316;16.174;2023-04-12T07:20:53;5.35;;;1.90;;
38859;SDS011;24609;48.316;16.174;2023-04-12T07:23:20;4.07;;;2.28;;
38859;SDS011;24609;48.316;16.174;2023-04-12T07:25:46;4.10;;;1.50;;
38859;SDS011;24609;48.316;16.174;2023-04-12T07:28:14;3.13;;;1.92;;
38859;SDS011;24609;48.316;16.174;2023-04-12T07:30:40;3.75;;;1.63;;
38859;SDS011;24609;48.316;16.174;2023-04-12T07:33:06;3.00;;;1.60;;
38859;SDS011;24609;48.316;16.174;2023-04-12T07:35:32;2.97;;;1.75;;
38859;SDS011;24609;48.316;16.174;2023-04-12T07:37:58;1.95;;;1.48;;
38859;SDS011;24609;48.316;16.174;2023-04-12T07:40:25;2.70;;;1.50;;
38859;SDS011;24609;48.316;16.174;2023-04-12T07:42:51;2.95;;;1.83;;
38859;SDS011;24609;48.316;16.174;2023-04-12T07:45:17;4.78;;;1.83;;
38859;SDS011;24609;48.316;16.174;2023-04-12T07:47:43;2.15;;;1.30;;
38859;SDS011;24609;48.316;16.174;2023-04-12T07:50:09;2.28;;;1.42;;
38859;SDS011;24609;48.316;16.174;2023-04-12T07:52:35;1.80;;;1.20;;
38859;SDS011;24609;48.316;16.174;2023-04-12T07:55:07;1.55;;;1.25;;
38859;SDS011;24609;48.316;16.174;2023-04-12T07:57:34;2.53;;;1.35;;
38859;SDS011;24609;48.316;16.174;2023-04-12T08:00:00;2.60;;;1.55;;
38859;SDS011;24609;48.316;16.174;2023-04-12T08:02:25;2.35;;;1.50;;
38859;SDS011;24609;48.316;16.174;2023-04-12T08:04:54;2.85;;;1.80;;
38859;SDS011;24609;48.316;16.174;2023-04-12T08:07:20;2.53;;;1.73;;
38859;SDS011;24609;48.316;16.174;2023-04-12T08:09:46;4.07;;;1.65;;
38859;SDS011;24609;48.316;16.174;2023-04-12T08:12:13;1.63;;;1.27;;
38859;SDS011;24609;48.316;16.174;2023-04-12T08:14:39;6.13;;;1.33;;
38859;SDS011;24609;48.316;16.174;2023-04-12T08:17:05;2.60;;;1.05;;
38859;SDS011;24609;48.316;16.174;2023-04-12T08:19:31;3.58;;;1.40;;
38859;SDS011;24609;48.316;16.174;2023-04-12T08:21:57;3.72;;;1.40;;
38859;SDS011;24609;48.316;16.174;2023-04-12T08:24:22;1.83;;;1.58;;
38859;SDS011;24609;48.316;16.174;2023-04-12T08:26:49;5.53;;;1.75;;
38859;SDS011;24609;48.316;16.174;2023-04-12T08:29:15;2.08;;;1.13;;
38859;SDS011;24609;48.316;16.174;2023-04-12T08:31:42;1.42;;;1.00;;
38859;SDS011;24609;48.316;16.174;2023-04-12T08:34:08;2.67;;;1.38;;
38859;SDS011;24609;48.316;16.174;2023-04-12T08:36:34;2.15;;;1.20;;
38859;SDS011;24609;48.316;16.174;2023-04-12T08:38:59;3.25;;;1.13;;
38859;SDS011;24609;48.316;16.174;2023-04-12T08:41:26;2.28;;;1.65;;
38859;SDS011;24609;48.316;16.174;2023-04-12T08:43:52;2.95;;;1.70;;
38859;SDS011;24609;48.316;16.174;2023-04-12T08:46:25;2.50;;;1.13;;
38859;SDS011;24609;48.316;16.174;2023-04-12T08:48:52;5.45;;;1.50;;
38859;SDS011;24609;48.316;16.174;2023-04-12T08:51:22;3.08;;;1.42;;
38859;SDS011;24609;48.316;16.174;2023-04-12T08:53:48;3.28;;;1.52;;
38859;SDS011;24609;48.316;16.174;2023-04-12T08:56:15;3.17;;;1.27;;
38859;SDS011;24609;48.316;16.174;2023-04-12T08:58:43;3.92;;;1.65;;
38859;SDS011;24609;48.316;16.174;2023-04-12T09:01:14;3.83;;;1.02;;
38859;SDS011;24609;48.316;16.174;2023-04-12T09:03:41;2.47;;;0.85;;
38859;SDS011;24609;48.316;16.174;2023-04-12T09:06:08;5.35;;;1.40;;
38859;SDS011;24609;48.316;16.174;2023-04-12T09:08:34;3.95;;;1.10;;
38859;SDS011;24609;48.316;16.174;2023-04-12T09:11:00;4.00;;;1.60;;
38859;SDS011;24609;48.316;16.174;2023-04-12T09:13:30;6.88;;;2.33;;
38859;SDS011;24609;48.316;16.174;2023-04-12T09:15:57;1.95;;;1.10;;
38859;SDS011;24609;48.316;16.174;2023-04-12T09:18:23;1.25;;;1.10;;
38859;SDS011;24609;48.316;16.174;2023-04-12T09:20:49;2.33;;;1.42;;
38859;SDS011;24609;48.316;16.174;2023-04-12T09:23:16;1.55;;;1.25;;
38859;SDS011;24609;48.316;16.174;2023-04-12T09:25:43;7.60;;;1.15;;
38859;SDS011;24609;48.316;16.174;2023-04-12T09:28:24;2.70;;;1.42;;
38859;SDS011;24609;48.316;16.174;2023-04-12T09:30:51;2.47;;;1.00;;
38859;SDS011;24609;48.316;16.174;2023-04-12T09:33:18;3.90;;;0.95;;
38859;SDS011;24609;48.316;16.174;2023-04-12T09:35:58;3.92;;;1.20;;
38859;SDS011;24609;48.316;16.174;2023-04-12T09:38:26;1.25;;;1.00;;
38859;SDS011;24609;48.316;16.174;2023-04-12T09:40:52;1.25;;;1.08;;
38859;SDS011;24609;48.316;16.174;2023-04-12T09:43:37;2.90;;;1.30;;
38859;SDS011;24609;48.316;16.174;2023-04-12T09:46:08;1.60;;;0.85;;
38859;SDS011;24609;48.316;16.174;2023-04-12T09:48:38;2.75;;;1.10;;
38859;SDS011;24609;48.316;16.174;2023-04-12T09:51:05;1.90;;;1.35;;
38859;SDS011;24609;48.316;16.174;2023-04-12T09:53:32;2.63;;;1.00;;
38859;SDS011;24609;48.316;16.174;2023-04-12T09:56:00;2.83;;;1.10;;
38859;SDS011;24609;48.316;16.174;2023-04-12T09:58:27;1.27;;;0.93;;
38859;SDS011;24609;48.316;16.174;2023-04-12T10:00:55;1.33;;;1.02;;
38859;SDS011;24609;48.316;16.174;2023-04-12T10:03:26;1.75;;;1.10;;
38859;SDS011;24609;48.316;16.174;2023-04-12T10:05:53;2.92;;;1.17;;
38859;SDS011;24609;48.316;16.174;2023-04-12T10:08:20;2.17;;;1.10;;
38859;SDS011;24609;48.316;16.174;2023-04-12T10:10:47;3.85;;;1.63;;
38859;SDS011;24609;48.316;16.174;2023-04-12T10:13:13;1.55;;;1.10;;
38859;SDS011;24609;48.316;16.174;2023-04-12T10:15:43;1.30;;;0.88;;
38859;SDS011;24609;48.316;16.174;2023-04-12T10:18:11;1.85;;;1.38;;
38859;SDS011;24609;48.316;16.174;2023-04-12T10:20:39;4.15;;;1.50;;
38859;SDS011;24609;48.316;16.174;2023-04-12T10:23:07;2.22;;;0.82;;
38859;SDS011;24609;48.316;16.174;2023-04-12T10:25:38;1.95;;;1.00;;
38859;SDS011;24609;48.316;16.174;2023-04-12T10:28:19;3.67;;;1.13;;
38859;SDS011;24609;48.316;16.174;2023-04-12T10:30:47;3.42;;;1.55;;
38859;SDS011;24609;48.316;16.174;2023-04-12T10:33:16;1.20;;;0.90;;
38859;SDS011;24609;48.316;16.174;2023-04-12T10:35:54;4.35;;;1.27;;
38859;SDS011;24609;48.316;16.174;2023-04-12T10:38:21;3.75;;;1.20;;
38859;SDS011;24609;48.316;16.174;2023-04-12T10:41:09;3.58;;;1.30;;
38859;SDS011;24609;48.316;16.174;2023-04-12T10:43:43;1.67;;;1.25;;
38859;SDS011;24609;48.316;16.174;2023-04-12T10:49:07;4.75;;;1.20;;
38859;SDS011;24609;48.316;16.174;2023-04-12T10:51:34;1.77;;;1.17;;
38859;SDS011;24609;48.316;16.174;2023-04-12T10:59:10;3.95;;;1.50;;
38859;SDS011;24609;48.316;16.174;2023-04-12T11:01:37;2.28;;;1.38;;
38859;SDS011;24609;48.316;16.174;2023-04-12T11:14:36;5.93;;;1.85;;
38859;SDS011;24609;48.316;16.174;2023-04-12T11:22:16;1.95;;;1.17;;
38859;SDS011;24609;48.316;16.174;2023-04-12T11:24:53;1.92;;;0.98;;
38859;SDS011;24609;48.316;16.174;2023-04-12T11:27:20;1.13;;;0.82;;
38859;SDS011;24609;48.316;16.174;2023-04-12T11:29:48;2.53;;;1.20;;
38859;SDS011;24609;48.316;16.174;2023-04-12T11:32:22;1.63;;;0.75;;
38859;SDS011;24609;48.316;16.174;2023-04-12T11:34:51;1.98;;;1.10;;
38859;SDS011;24609;48.316;16.174;2023-04-12T11:37:20;1.88;;;1.50;;
38859;SDS011;24609;48.316;16.174;2023-04-12T11:39:46;2.60;;;0.95;;
38859;SDS011;24609;48.316;16.174;2023-04-12T11:42:19;2.17;;;0.80;;
38859;SDS011;24609;48.316;16.174;2023-04-12T11:44:46;1.90;;;0.90;;
38859;SDS011;24609;48.316;16.174;2023-04-12T11:47:13;1.15;;;0.77;;
38859;SDS011;24609;48.316;16.174;2023-04-12T11:49:44;2.15;;;1.35;;
38859;SDS011;24609;48.316;16.174;2023-04-12T11:52:11;1.25;;;0.90;;
38859;SDS011;24609;48.316;16.174;2023-04-12T11:54:42;2.40;;;0.82;;
38859;SDS011;24609;48.316;16.174;2023-04-12T11:57:10;2.80;;;0.98;;
38859;SDS011;24609;48.316;16.174;2023-04-12T11:59:37;2.47;;;0.80;;
38859;SDS011;24609;48.316;16.174;2023-04-12T12:02:03;3.40;;;0.88;;
38859;SDS011;24609;48.316;16.174;2023-04-12T12:04:32;2.40;;;1.02;;
38859;SDS011;24609;48.316;16.174;2023-04-12T12:06:59;1.17;;;0.80;;
38859;SDS011;24609;48.316;16.174;2023-04-12T12:09:25;5.07;;;1.02;;
38859;SDS011;24609;48.316;16.174;2023-04-12T12:11:52;4.18;;;1.05;;
38859;SDS011;24609;48.316;16.174;2023-04-12T12:14:18;3.25;;;1.00;;
38859;SDS011;24609;48.316;16.174;2023-04-12T12:16:52;2.38;;;0.82;;
38859;SDS011;24609;48.316;16.174;2023-04-12T12:19:26;2.13;;;0.82;;
38859;SDS011;24609;48.316;16.174;2023-04-12T12:21:54;2.55;;;1.23;;
38859;SDS011;24609;48.316;16.174;2023-04-12T12:24:34;3.30;;;1.35;;
38859;SDS011;24609;48.316;16.174;2023-04-12T12:27:01;1.67;;;0.85;;
38859;SDS011;24609;48.316;16.174;2023-04-12T12:29:33;3.17;;;1.45;;
38859;SDS011;24609;48.316;16.174;2023-04-12T12:32:01;1.38;;;1.17;;
38859;SDS011;24609;48.316;16.174;2023-04-12T12:34:30;2.13;;;0.88;;
38859;SDS011;24609;48.316;16.174;2023-04-12T12:36:58;2.30;;;1.02;;
38859;SDS011;24609;48.316;16.174;2023-04-12T12:39:24;2.47;;;0.93;;
38859;SDS011;24609;48.316;16.174;2023-04-12T12:41:54;3.40;;;1.10;;
38859;SDS011;24609;48.316;16.174;2023-04-12T12:44:22;5.55;;;1.15;;
38859;SDS011;24609;48.316;16.174;2023-04-12T12:46:48;6.65;;;0.88;;
38859;SDS011;24609;48.316;16.174;2023-04-12T12:49:15;2.45;;;0.70;;
38859;SDS011;24609;48.316;16.174;2023-04-12T12:51:41;3.08;;;1.10;;
38859;SDS011;24609;48.316;16.174;2023-04-12T12:54:07;2.88;;;0.90;;
38859;SDS011;24609;48.316;16.174;2023-04-12T12:56:33;3.50;;;1.15;;
38859;SDS011;24609;48.316;16.174;2023-04-12T12:58:59;1.90;;;0.93;;
38859;SDS011;24609;48.316;16.174;2023-04-12T13:01:25;1.77;;;0.90;;
38859;SDS011;24609;48.316;16.174;2023-04-12T13:03:51;1.40;;;1.20;;
38859;SDS011;24609;48.316;16.174;2023-04-12T13:06:17;2.47;;;0.80;;
38859;SDS011;24609;48.316;16.174;2023-04-12T13:08:43;1.52;;;0.95;;
38859;SDS011;24609;48.316;16.174;2023-04-12T13:11:09;2.13;;;1.10;;
38859;SDS011;24609;48.316;16.174;2023-04-12T13:13:35;2.40;;;1.00;;
38859;SDS011;24609;48.316;16.174;2023-04-12T13:16:01;2.88;;;1.13;;
38859;SDS011;24609;48.316;16.174;2023-04-12T13:18:26;3.88;;;1.13;;
38859;SDS011;24609;48.316;16.174;2023-04-12T13:20:52;3.33;;;1.27;;
38859;SDS011;24609;48.316;16.174;2023-04-12T13:23:18;2.58;;;0.95;;
38859;SDS011;24609;48.316;16.174;2023-04-12T13:25:44;1.42;;;0.70;;
38859;SDS011;24609;48.316;16.174;2023-04-12T13:28:10;3.28;;;0.90;;
38859;SDS011;24609;48.316;16.174;2023-04-12T13:30:36;2.88;;;1.27;;
38859;SDS011;24609;48.316;16.174;2023-04-12T13:33:02;3.22;;;0.98;;
38859;SDS011;24609;48.316;16.174;2023-04-12T13:35:28;4.13;;;1.10;;
38859;SDS011;24609;48.316;16.174;2023-04-12T13:37:53;4.68;;;1.00;;
38859;SDS011;24609;48.316;16.174;2023-04-12T13:40:19;2.55;;;1.33;;
38859;SDS011;24609;48.316;16.174;2023-04-12T13:42:45;3.25;;;1.20;;
38859;SDS011;24609;48.316;16.174;2023-04-12T13:45:11;1.83;;;1.25;;
38859;SDS011;24609;48.316;16.174;2023-04-12T13:47:37;6.00;;;1.38;;
38859;SDS011;24609;48.316;16.174;2023-04-12T13:50:03;1.70;;;0.90;;
38859;SDS011;24609;48.316;16.174;2023-04-12T13:52:29;1.70;;;1.05;;
38859;SDS011;24609;48.316;16.174;2023-04-12T13:54:57;2.30;;;0.95;;
38859;SDS011;24609;48.316;16.174;2023-04-12T13:57:23;5.07;;;1.55;;
38859;SDS011;24609;48.316;16.174;2023-04-12T13:59:49;2.20;;;1.15;;
38859;SDS011;24609;48.316;16.174;2023-04-12T14:02:15;1.77;;;0.95;;
38859;SDS011;24609;48.316;16.174;2023-04-12T14:04:50;1.30;;;1.00;;
38859;SDS011;24609;48.316;16.174;2023-04-12T14:07:16;2.47;;;1.15;;
38859;SDS011;24609;48.316;16.174;2023-04-12T14:09:42;6.82;;;1.30;;
38859;SDS011;24609;48.316;16.174;2023-04-12T14:12:08;4.93;;;2.25;;
38859;SDS011;24609;48.316;16.174;2023-04-12T14:14:34;3.83;;;1.65;;
38859;SDS011;24609;48.316;16.174;2023-04-12T14:17:00;3.83;;;1.95;;
38859;SDS011;24609;48.316;16.174;2023-04-12T14:19:27;3.28;;;1.30;;
38859;SDS011;24609;48.316;16.174;2023-04-12T14:21:53;1.45;;;1.27;;
38859;SDS011;24609;48.316;16.174;2023-04-12T14:24:19;5.30;;;1.55;;
38859;SDS011;24609;48.316;16.174;2023-04-12T14:26:45;4.32;;;1.33;;
38859;SDS011;24609;48.316;16.174;2023-04-12T14:29:12;4.25;;;1.17;;
38859;SDS011;24609;48.316;16.174;2023-04-12T14:31:38;5.15;;;1.40;;
38859;SDS011;24609;48.316;16.174;2023-04-12T14:34:04;3.72;;;1.40;;
38859;SDS011;24609;48.316;16.174;2023-04-12T14:36:30;6.00;;;1.65;;
38859;SDS011;24609;48.316;16.174;2023-04-12T14:38:57;3.03;;;1.73;;
38859;SDS011;24609;48.316;16.174;2023-04-12T14:41:23;4.45;;;1.48;;
38859;SDS011;24609;48.316;16.174;2023-04-12T14:43:49;4.10;;;1.70;;
38859;SDS011;24609;48.316;16.174;2023-04-12T14:46:15;2.15;;;1.10;;
38859;SDS011;24609;48.316;16.174;2023-04-12T14:48:41;5.30;;;1.38;;
38859;SDS011;24609;48.316;16.174;2023-04-12T14:51:08;1.92;;;1.42;;
38859;SDS011;24609;48.316;16.174;2023-04-12T14:53:34;2.33;;;1.33;;
38859;SDS011;24609;48.316;16.174;2023-04-12T14:56:00;1.77;;;1.15;;
38859;SDS011;24609;48.316;16.174;2023-04-12T14:58:29;1.13;;;0.95;;
38859;SDS011;24609;48.316;16.174;2023-04-12T15:00:56;5.25;;;2.53;;
38859;SDS011;24609;48.316;16.174;2023-04-12T15:03:22;2.10;;;1.30;;
38859;SDS011;24609;48.316;16.174;2023-04-12T15:05:50;4.97;;;3.10;;
38859;SDS011;24609;48.316;16.174;2023-04-12T15:08:16;8.13;;;2.22;;
38859;SDS011;24609;48.316;16.174;2023-04-12T15:10:42;3.22;;;2.17;;
38859;SDS011;24609;48.316;16.174;2023-04-12T15:13:08;2.67;;;1.98;;
38859;SDS011;24609;48.316;16.174;2023-04-12T15:15:35;3.63;;;1.88;;
38859;SDS011;24609;48.316;16.174;2023-04-12T15:18:00;2.72;;;1.60;;